Time;durP1;ratioP1;P1;durP2;ratioP2;P2;SDS_P1;SDS_P2;PMS_P1;PMS_P2;Temp;Humidity;BMP_temperature;BMP_pressure;BME280_temperature;BME280_humidity;BME280_pressure;Samples;Min_cycle;Max_cycle;Signal;HPM_P1;HPM_P2
2023/02/05 00:01:13;;;;;;;9.80;5.40;;;;;;;-1.92;100.00;100355.58;105083;1258;74964;-59
2023/02/05 00:03:42;;;;;;;8.30;4.70;;;;;;;-1.94;100.00;100354.71;105221;1258;67469;-58
2023/02/05 00:06:11;;;;;;;9.40;5.60;;;;;;;-1.98;100.00;100354.10;105202;1260;72664;-61
2023/02/05 00:08:40;;;;;;;10.00;6.00;;;;;;;-2.02;100.00;100350.79;105063;1260;62743;-58
2023/02/05 00:11:09;;;;;;;9.20;5.40;;;;;;;-2.04;100.00;100349.23;105108;1263;61583;-58
2023/02/05 00:13:39;;;;;;;9.90;5.70;;;;;;;-2.05;100.00;100344.52;105197;1260;75240;-57
2023/02/05 00:16:16;;;;;;;10.20;6.10;;;;;;;-2.07;100.00;100345.17;105320;1261;67436;-57
2023/02/05 00:18:45;;;;;;;12.10;5.50;;;;;;;-2.09;100.00;100342.94;104986;1263;74270;-60
2023/02/05 00:21:14;;;;;;;8.60;5.40;;;;;;;-2.12;100.00;100346.52;105229;1260;61350;-58
2023/02/05 00:23:42;;;;;;;13.70;7.70;;;;;;;-2.14;100.00;100347.02;105205;1262;61323;-60
2023/02/05 00:26:13;;;;;;;12.20;8.10;;;;;;;-2.15;100.00;100349.66;105196;1258;76151;-59
2023/02/05 00:28:42;;;;;;;11.40;7.20;;;;;;;-2.17;100.00;100345.15;104691;1263;68675;-56
2023/02/05 00:31:12;;;;;;;12.90;6.70;;;;;;;-2.17;100.00;100346.02;108376;1257;74759;-56
2023/02/05 00:33:41;;;;;;;15.70;11.00;;;;;;;-2.18;100.00;100341.15;105130;1263;61118;-57
2023/02/05 00:36:10;;;;;;;29.10;18.30;;;;;;;-2.18;100.00;100345.77;105145;1261;61632;-57
2023/02/05 00:38:41;;;;;;;17.20;10.80;;;;;;;-2.18;100.00;100349.00;104868;1262;74423;-56
2023/02/05 00:41:10;;;;;;;20.70;10.90;;;;;;;-2.21;100.00;100351.52;105114;1259;68788;-57
2023/02/05 00:43:39;;;;;;;21.10;11.00;;;;;;;-2.24;100.00;100352.55;105013;1263;74241;-58
2023/02/05 00:46:09;;;;;;;16.20;9.70;;;;;;;-2.28;100.00;100347.41;105165;1263;61716;-60
2023/02/05 00:48:38;;;;;;;19.00;9.80;;;;;;;-2.31;100.00;100350.50;104868;1265;61209;-57
2023/02/05 00:51:09;;;;;;;17.80;9.70;;;;;;;-2.35;100.00;100351.73;105276;1263;76225;-60
2023/02/05 00:53:37;;;;;;;15.10;9.30;;;;;;;-2.39;100.00;100353.73;105119;1262;68077;-58
2023/02/05 00:56:06;;;;;;;15.30;8.80;;;;;;;-2.44;100.00;100356.57;105206;1262;74573;-57
2023/02/05 00:58:35;;;;;;;15.80;9.40;;;;;;;-2.51;100.00;100353.77;104964;1265;61883;-57
2023/02/05 01:01:04;;;;;;;17.10;10.00;;;;;;;-2.53;100.00;100358.16;105090;1258;61750;-60
2023/02/05 01:03:33;;;;;;;15.80;8.60;;;;;;;-2.55;100.00;100358.11;104964;1257;76533;-57
2023/02/05 01:06:02;;;;;;;14.30;9.10;;;;;;;-2.59;100.00;100359.05;105161;1260;67582;-58
2023/02/05 01:08:31;;;;;;;15.10;9.70;;;;;;;-2.63;100.00;100357.77;105061;1264;74521;-57
2023/02/05 01:11:00;;;;;;;15.80;9.60;;;;;;;-2.67;100.00;100358.74;105155;1263;61327;-60
2023/02/05 01:13:29;;;;;;;16.80;9.70;;;;;;;-2.70;100.00;100361.09;104815;1263;61319;-57
2023/02/05 01:15:57;;;;;;;14.60;8.80;;;;;;;-2.71;100.00;100363.34;105397;1257;76196;-58
2023/02/05 01:18:26;;;;;;;17.20;9.10;;;;;;;-2.76;100.00;100367.40;104849;1266;69510;-58
2023/02/05 01:20:55;;;;;;;13.50;8.30;;;;;;;-2.81;100.00;100366.20;105383;1257;73217;-60
2023/02/05 01:23:23;;;;;;;15.80;10.20;;;;;;;-2.84;100.00;100368.79;104763;1264;61508;-57
2023/02/05 01:25:52;;;;;;;15.90;10.40;;;;;;;-2.87;100.00;100368.27;105437;1258;61857;-58
2023/02/05 01:28:21;;;;;;;17.20;9.80;;;;;;;-2.88;100.00;100371.75;105103;1262;76394;-57
2023/02/05 01:30:50;;;;;;;18.20;11.70;;;;;;;-2.90;100.00;100371.70;105083;1263;68673;-58
2023/02/05 01:33:20;;;;;;;20.60;11.80;;;;;;;-2.93;100.00;100375.29;104975;1261;74217;-57
2023/02/05 01:35:49;;;;;;;19.40;12.70;;;;;;;-2.97;100.00;100376.33;105203;1262;61404;-60
2023/02/05 01:38:17;;;;;;;22.40;12.80;;;;;;;-3.00;100.00;100380.28;104773;1262;61646;-57
2023/02/05 01:40:46;;;;;;;16.90;10.80;;;;;;;-3.02;100.00;100378.54;105088;1263;75182;-57
2023/02/05 01:43:15;;;;;;;18.60;11.60;;;;;;;-3.02;100.00;100383.34;105032;1261;68136;-56
2023/02/05 01:45:49;;;;;;;18.40;11.70;;;;;;;-3.03;100.00;100381.32;104971;1261;73137;-57
2023/02/05 01:48:21;;;;;;;19.70;11.80;;;;;;;-3.06;100.00;100380.46;104945;1258;63783;-57
2023/02/05 01:50:52;;;;;;;20.40;12.40;;;;;;;-3.07;100.00;100378.69;105054;1260;61604;-56
2023/02/05 01:53:23;;;;;;;19.80;12.30;;;;;;;-3.09;100.00;100384.44;104962;1257;75375;-57
2023/02/05 01:56:01;;;;;;;23.10;13.40;;;;;;;-3.11;100.00;100391.30;105292;1261;68630;-58
2023/02/05 01:58:32;;;;;;;20.60;12.60;;;;;;;-3.11;100.00;100391.70;105033;1263;73580;-56
2023/02/05 02:01:00;;;;;;;19.70;12.50;;;;;;;-3.11;100.00;100393.74;105073;1261;61238;-56
2023/02/05 02:03:29;;;;;;;23.80;14.40;;;;;;;-3.12;100.00;100397.68;105093;1260;62105;-56
2023/02/05 02:05:59;;;;;;;22.30;12.80;;;;;;;-3.13;100.00;100398.25;105085;1263;74663;-58
2023/02/05 02:08:28;;;;;;;21.90;13.70;;;;;;;-3.14;100.00;100396.44;105067;1261;67680;-56
2023/02/05 02:10:57;;;;;;;24.30;14.80;;;;;;;-3.14;100.00;100399.52;105308;1257;73271;-57
2023/02/05 02:13:26;;;;;;;21.50;13.50;;;;;;;-3.15;100.00;100399.89;105070;1271;61217;-56
2023/02/05 02:15:55;;;;;;;19.10;11.60;;;;;;;-3.14;100.00;100401.37;105211;1260;61212;-59
2023/02/05 02:18:25;;;;;;;19.40;12.10;;;;;;;-3.15;100.00;100401.79;105035;1263;76243;-56
2023/02/05 02:21:00;;;;;;;17.40;10.90;;;;;;;-3.17;100.00;100406.02;105009;1263;68431;-57
2023/02/05 02:23:54;;;;;;;19.80;11.90;;;;;;;-3.19;100.00;100408.64;104955;1260;74483;-60
2023/02/05 02:26:31;;;;;;;19.30;11.40;;;;;;;-3.18;100.00;100409.95;105165;1258;61280;-56
2023/02/05 02:29:02;;;;;;;18.40;11.20;;;;;;;-3.16;100.00;100415.98;105064;1260;61177;-56
2023/02/05 02:31:38;;;;;;;21.70;13.00;;;;;;;-3.16;100.00;100417.29;105053;1258;74684;-56
2023/02/05 02:34:14;;;;;;;20.40;11.60;;;;;;;-3.16;100.00;100419.66;105119;1257;67714;-56
2023/02/05 02:36:57;;;;;;;21.40;11.90;;;;;;;-3.18;100.00;100416.88;104856;1258;72986;-58
2023/02/05 02:39:31;;;;;;;20.70;12.00;;;;;;;-3.21;100.00;100419.08;105208;1264;61352;-55
2023/02/05 02:42:33;;;;;;;18.80;11.10;;;;;;;-3.22;100.00;100418.84;104991;1260;61881;-58
2023/02/05 02:45:06;;;;;;;20.20;12.00;;;;;;;-3.22;100.00;100421.54;105130;1260;76514;-56
2023/02/05 02:47:41;;;;;;;21.80;13.10;;;;;;;-3.22;100.00;100422.58;104943;1264;66511;-58
2023/02/05 02:50:35;;;;;;;22.60;13.70;;;;;;;-3.23;100.00;100419.42;105068;1257;72925;-56
2023/02/05 02:53:16;;;;;;;22.10;14.00;;;;;;;-3.23;100.00;100421.79;104988;1258;61429;-57
2023/02/05 02:55:45;;;;;;;22.60;12.80;;;;;;;-3.21;100.00;100425.38;105002;1266;61241;-55
2023/02/05 02:58:32;;;;;;;19.90;12.40;;;;;;;-3.18;100.00;100423.70;105026;1257;76219;-57
2023/02/05 03:01:00;;;;;;;22.00;13.60;;;;;;;-3.14;100.00;100421.61;104813;1263;67855;-56
2023/02/05 03:03:29;;;;;;;21.20;12.20;;;;;;;-3.11;100.00;100426.89;105374;1260;74170;-56
2023/02/05 03:05:58;;;;;;;22.90;13.10;;;;;;;-3.11;100.00;100428.73;105083;1257;61350;-56
2023/02/05 03:08:40;;;;;;;20.20;12.30;;;;;;;-3.09;100.00;100432.83;105246;1257;61986;-58
2023/02/05 03:11:12;;;;;;;25.60;14.10;;;;;;;-3.07;100.00;100432.73;104671;1263;76230;-59
2023/02/05 03:13:45;;;;;;;25.20;14.60;;;;;;;-3.06;100.00;100432.20;105053;1257;68634;-56
2023/02/05 03:16:14;;;;;;;25.00;14.50;;;;;;;-3.07;100.00;100437.20;105028;1267;73070;-57
2023/02/05 03:18:42;;;;;;;20.30;13.80;;;;;;;-3.08;100.00;100438.55;105079;1261;61747;-55
2023/02/05 03:21:17;;;;;;;23.10;14.60;;;;;;;-3.06;100.00;100442.41;105182;1258;61244;-57
2023/02/05 03:23:47;;;;;;;20.80;12.30;;;;;;;-3.06;100.00;100439.98;105227;1261;76122;-56
2023/02/05 03:26:27;;;;;;;22.90;14.80;;;;;;;-3.05;100.00;100439.93;105211;1257;67621;-57
2023/02/05 03:29:07;;;;;;;26.10;14.60;;;;;;;-3.04;100.00;100444.14;104889;1258;73753;-56
2023/02/05 03:31:42;;;;;;;24.70;15.10;;;;;;;-3.04;100.00;100445.83;105148;1263;62724;-55
2023/02/05 03:34:22;;;;;;;22.90;14.00;;;;;;;-3.05;100.00;100448.79;105295;1260;61231;-56
2023/02/05 03:36:59;;;;;;;22.60;13.10;;;;;;;-3.04;100.00;100446.00;105345;1258;76438;-56
2023/02/05 03:39:44;;;;;;;25.60;15.40;;;;;;;-3.01;100.00;100449.21;105495;1257;68666;-55
2023/02/05 03:42:44;;;;;;;26.70;15.00;;;;;;;-2.98;100.00;100452.27;105156;1258;72668;-57
2023/02/05 03:45:32;;;;;;;25.90;14.70;;;;;;;-2.94;100.00;100453.89;105310;1260;63032;-56
2023/02/05 03:48:25;;;;;;;25.30;15.20;;;;;;;-2.91;100.00;100455.74;105234;1258;60898;-56
2023/02/05 03:51:12;;;;;;;22.50;13.80;;;;;;;-2.87;100.00;100456.55;105655;1260;76150;-59
2023/02/05 03:54:15;;;;;;;22.20;13.40;;;;;;;-2.84;100.00;100456.35;105461;1257;68582;-56
2023/02/05 03:57:14;;;;;;;24.30;14.50;;;;;;;-2.83;100.00;100456.11;105208;1257;73467;-56
2023/02/05 03:59:44;;;;;;;24.40;14.00;;;;;;;-2.80;100.00;100456.45;105372;1263;61733;-57
2023/02/05 04:02:13;;;;;;;21.10;13.80;;;;;;;-2.76;100.00;100454.34;105094;1257;61898;-56
2023/02/05 04:04:42;;;;;;;20.90;13.10;;;;;;;-2.74;100.00;100456.25;105056;1263;75775;-57
2023/02/05 04:07:11;;;;;;;22.00;13.20;;;;;;;-2.73;100.00;100460.07;104868;1258;67333;-56
2023/02/05 04:09:40;;;;;;;23.50;14.20;;;;;;;-2.70;100.00;100456.86;105034;1263;74158;-55
2023/02/05 04:12:09;;;;;;;23.20;14.60;;;;;;;-2.68;100.00;100457.44;104954;1261;61578;-55
2023/02/05 04:14:38;;;;;;;24.20;14.50;;;;;;;-2.68;100.00;100458.96;104914;1262;61258;-55
2023/02/05 04:17:10;;;;;;;21.40;13.00;;;;;;;-2.67;100.00;100458.21;105275;1257;75289;-56
2023/02/05 04:19:40;;;;;;;23.80;13.00;;;;;;;-2.67;100.00;100459.27;105276;1257;68645;-56
2023/02/05 04:22:09;;;;;;;24.80;14.00;;;;;;;-2.65;100.00;100461.20;105340;1260;72603;-56
2023/02/05 04:24:43;;;;;;;24.90;14.10;;;;;;;-2.66;100.00;100462.44;105074;1263;61638;-57
2023/02/05 04:27:13;;;;;;;27.60;16.70;;;;;;;-2.69;100.00;100465.64;105125;1257;61881;-57
2023/02/05 04:29:41;;;;;;;24.90;15.20;;;;;;;-2.72;100.00;100468.36;105167;1260;75972;-57
2023/02/05 04:32:10;;;;;;;21.80;13.70;;;;;;;-2.73;100.00;100468.11;105089;1267;66608;-55
2023/02/05 04:34:39;;;;;;;22.70;13.40;;;;;;;-2.76;100.00;100471.68;105369;1263;74432;-59
2023/02/05 04:37:08;;;;;;;28.50;15.80;;;;;;;-2.80;100.00;100471.55;105290;1257;61234;-56
2023/02/05 04:39:36;;;;;;;22.10;13.60;;;;;;;-2.82;100.00;100475.61;105311;1260;61215;-56
2023/02/05 04:42:05;;;;;;;22.00;13.60;;;;;;;-2.83;100.00;100480.09;105253;1260;77014;-55
2023/02/05 04:44:33;;;;;;;20.70;12.90;;;;;;;-2.84;100.00;100480.16;105715;1257;67974;-57
2023/02/05 04:47:02;;;;;;;20.80;13.20;;;;;;;-2.81;100.00;100480.16;105129;1261;73350;-58
2023/02/05 04:49:32;;;;;;;22.10;14.00;;;;;;;-2.78;100.00;100483.22;105466;1258;61317;-56
2023/02/05 04:52:01;;;;;;;22.80;13.80;;;;;;;-2.77;100.00;100486.17;105385;1257;61905;-57
2023/02/05 04:54:30;;;;;;;26.10;15.80;;;;;;;-2.75;100.00;100485.23;105387;1256;76057;-57
2023/02/05 04:56:59;;;;;;;23.50;14.60;;;;;;;-2.72;100.00;100483.70;105122;1260;68521;-57
2023/02/05 04:59:29;;;;;;;39.00;20.40;;;;;;;-2.66;100.00;100482.54;105516;1261;73249;-60
2023/02/05 05:01:58;;;;;;;33.10;18.90;;;;;;;-2.63;100.00;100481.77;105245;1257;61359;-58
2023/02/05 05:04:26;;;;;;;25.30;14.90;;;;;;;-2.62;100.00;100486.83;105007;1257;61857;-59
2023/02/05 05:06:55;;;;;;;30.50;17.70;;;;;;;-2.63;100.00;100494.72;104986;1257;76220;-57
2023/02/05 05:09:24;;;;;;;27.20;17.10;;;;;;;-2.63;100.00;100505.27;105017;1260;67656;-54
2023/02/05 05:11:53;;;;;;;23.70;15.10;;;;;;;-2.60;100.00;100506.62;105063;1260;73978;-58
2023/02/05 05:14:21;;;;;;;20.70;13.00;;;;;;;-2.56;100.00;100510.48;105075;1260;61277;-56
2023/02/05 05:16:54;;;;;;;20.10;12.40;;;;;;;-2.57;100.00;100512.89;105031;1257;61260;-57
2023/02/05 05:19:23;;;;;;;20.50;13.50;;;;;;;-2.57;100.00;100519.23;105088;1260;76202;-56
2023/02/05 05:21:51;;;;;;;23.30;12.30;;;;;;;-2.56;100.00;100518.16;105089;1257;67297;-56
2023/02/05 05:24:20;;;;;;;28.00;18.10;;;;;;;-2.57;100.00;100518.16;105523;1257;74076;-58
2023/02/05 05:26:48;;;;;;;22.60;14.60;;;;;;;-2.54;100.00;100519.55;105339;1258;62978;-58
2023/02/05 05:29:17;;;;;;;25.80;16.00;;;;;;;-2.52;100.00;100520.92;105126;1257;61622;-58
2023/02/05 05:31:46;;;;;;;26.60;17.30;;;;;;;-2.50;100.00;100523.19;105225;1257;76317;-59
2023/02/05 05:34:15;;;;;;;26.40;15.90;;;;;;;-2.49;100.00;100529.23;105021;1257;68271;-60
2023/02/05 05:36:44;;;;;;;23.90;15.70;;;;;;;-2.44;100.00;100533.06;105072;1260;73114;-58
2023/02/05 05:44:50;;;;;;;29.90;17.80;;;;;;;-2.34;100.00;100537.57;105066;1257;75862;-57
2023/02/05 05:47:19;;;;;;;28.10;17.20;;;;;;;-2.32;100.00;100540.13;105111;1260;68936;-59
2023/02/05 05:49:48;;;;;;;29.80;18.70;;;;;;;-2.29;100.00;100540.80;105160;1260;73890;-58
2023/02/05 05:52:16;;;;;;;32.00;21.50;;;;;;;-2.24;100.00;100541.38;105074;1257;61181;-58
2023/02/05 05:54:45;;;;;;;35.00;23.60;;;;;;;-2.19;100.00;100540.20;105217;1257;61748;-58
2023/02/05 05:57:14;;;;;;;32.20;21.70;;;;;;;-2.17;100.00;100544.51;105133;1256;76139;-58
2023/02/05 05:59:42;;;;;;;34.10;20.50;;;;;;;-2.13;100.00;100544.80;105005;1260;67630;-59
2023/02/05 06:02:11;;;;;;;54.70;35.40;;;;;;;-2.09;100.00;100544.70;104986;1260;74198;-58
2023/02/05 06:04:40;;;;;;;38.50;25.40;;;;;;;-2.03;100.00;100546.04;105060;1257;61312;-60
2023/02/05 06:07:09;;;;;;;48.70;33.70;;;;;;;-2.00;100.00;100545.66;105147;1260;61069;-58
2023/02/05 06:09:37;;;;;;;31.60;19.70;;;;;;;-1.99;100.00;100546.27;105118;1259;76365;-58
2023/02/05 06:12:10;;;;;;;26.20;18.00;;;;;;;-1.95;100.00;100550.48;105307;1259;69059;-58
2023/02/05 06:14:40;;;;;;;30.60;18.00;;;;;;;-1.90;100.00;100545.90;105434;1257;73318;-61
2023/02/05 06:17:09;;;;;;;25.50;15.90;;;;;;;-1.89;100.00;100547.55;105104;1258;61350;-60
2023/02/05 06:19:38;;;;;;;28.90;19.00;;;;;;;-1.85;100.00;100550.31;105112;1257;61244;-58
2023/02/05 06:22:07;;;;;;;25.30;16.30;;;;;;;-1.78;100.00;100547.88;105058;1260;74963;-57
2023/02/05 06:24:35;;;;;;;28.20;17.90;;;;;;;-1.70;100.00;100549.23;105096;1260;67603;-57
2023/02/05 06:27:04;;;;;;;29.20;18.20;;;;;;;-1.63;100.00;100551.19;105222;1258;74232;-58
2023/02/05 06:29:35;;;;;;;25.80;15.80;;;;;;;-1.59;100.00;100556.19;105051;1256;62706;-56
2023/02/05 06:32:04;;;;;;;26.30;17.00;;;;;;;-1.55;100.00;100555.14;105063;1257;61266;-56
2023/02/05 06:34:32;;;;;;;29.40;18.20;;;;;;;-1.52;100.00;100555.42;105079;1260;76178;-57
2023/02/05 06:37:02;;;;;;;25.00;16.70;;;;;;;-1.47;100.00;100550.32;105261;1257;66658;-58
2023/02/05 06:39:31;;;;;;;30.20;18.80;;;;;;;-1.40;100.00;100551.23;105097;1260;74231;-57
2023/02/05 06:42:00;;;;;;;28.30;17.40;;;;;;;-1.33;100.00;100552.46;105033;1257;61959;-57
2023/02/05 06:44:29;;;;;;;26.20;16.70;;;;;;;-1.25;100.00;100551.29;105629;1257;61132;-59
2023/02/05 06:46:58;;;;;;;25.30;15.60;;;;;;;-1.17;100.00;100555.07;105214;1260;74540;-57
2023/02/05 06:49:26;;;;;;;26.50;16.70;;;;;;;-1.09;100.00;100555.55;105186;1260;67509;-56
2023/02/05 06:51:55;;;;;;;25.40;16.30;;;;;;;-1.02;100.00;100554.73;105157;1257;73088;-56
2023/02/05 06:54:24;;;;;;;28.20;18.40;;;;;;;-0.96;100.00;100554.02;105178;1261;61223;-60
2023/02/05 06:56:53;;;;;;;28.80;17.70;;;;;;;-0.88;100.00;100562.36;105289;1260;61182;-60
2023/02/05 06:59:22;;;;;;;30.10;18.00;;;;;;;-0.82;100.00;100558.88;105042;1257;75968;-58
2023/02/05 07:01:51;;;;;;;26.30;17.30;;;;;;;-0.77;100.00;100559.02;105047;1257;68866;-58
2023/02/05 07:04:20;;;;;;;28.50;18.60;;;;;;;-0.73;100.00;100559.98;105237;1256;74828;-61
2023/02/05 07:06:48;;;;;;;34.70;21.10;;;;;;;-0.71;100.00;100561.88;105284;1257;61381;-59
2023/02/05 07:09:17;;;;;;;26.60;16.20;;;;;;;-0.67;100.00;100562.27;105099;1259;61261;-57
2023/02/05 07:11:45;;;;;;;24.30;14.60;;;;;;;-0.62;100.00;100564.16;105046;1259;76292;-57
2023/02/05 07:14:16;;;;;;;21.20;13.70;;;;;;;-0.59;100.00;100562.09;105219;1257;68372;-57
2023/02/05 07:16:46;;;;;;;37.10;21.80;;;;;;;-0.57;100.00;100561.27;105278;1257;74226;-59
2023/02/05 07:19:14;;;;;;;23.00;14.70;;;;;;;-0.56;100.00;100563.62;105251;1256;61257;-56
2023/02/05 07:21:43;;;;;;;25.70;15.70;;;;;;;-0.53;100.00;100565.80;104998;1260;419750;-55
2023/02/05 07:24:13;;;;;;;24.70;14.40;;;;;;;-0.51;100.00;100563.77;105293;1258;75393;-57
2023/02/05 07:26:44;;;;;;;21.70;13.50;;;;;;;-0.50;100.00;100566.61;105409;1257;67581;-61
2023/02/05 07:29:12;;;;;;;23.50;15.10;;;;;;;-0.48;100.00;100570.07;105266;1256;73867;-56
2023/02/05 07:31:42;;;;;;;22.80;14.70;;;;;;;-0.42;100.00;100567.98;105327;1260;61584;-57
2023/02/05 07:34:10;;;;;;;19.70;12.10;;;;;;;-0.33;100.00;100559.48;105122;1257;61835;-57
2023/02/05 07:36:39;;;;;;;20.90;13.10;;;;;;;-0.28;100.00;100560.96;105369;1258;75338;-61
2023/02/05 07:39:08;;;;;;;21.30;13.10;;;;;;;-0.23;100.00;100563.20;105063;1257;68699;-58
2023/02/05 07:41:37;;;;;;;32.90;18.70;;;;;;;-0.18;100.00;100561.52;105138;1260;74518;-59
2023/02/05 07:44:05;;;;;;;22.10;15.10;;;;;;;-0.14;100.00;100564.14;105159;1257;62550;-58
2023/02/05 07:46:34;;;;;;;19.90;13.10;;;;;;;-0.12;100.00;100564.50;105249;1260;60934;-59
2023/02/05 07:49:03;;;;;;;19.30;12.50;;;;;;;-0.08;100.00;100571.05;105163;1260;75669;-58
2023/02/05 07:51:31;;;;;;;19.80;13.40;;;;;;;-0.04;100.00;100574.69;104979;1257;66453;-59
2023/02/05 07:54:05;;;;;;;20.10;13.70;;;;;;;0.05;100.00;100576.48;105005;1257;74102;-57
2023/02/05 07:56:33;;;;;;;17.30;12.30;;;;;;;0.15;100.00;100574.39;105268;1260;61225;-57
2023/02/05 07:59:02;;;;;;;22.60;15.20;;;;;;;0.29;100.00;100573.94;105326;1257;61295;-60
2023/02/05 08:01:33;;;;;;;35.60;22.80;;;;;;;0.48;100.00;100574.11;105115;1260;76049;-57
2023/02/05 08:04:01;;;;;;;51.20;34.60;;;;;;;0.68;100.00;100575.73;104957;1263;67495;-58
2023/02/05 08:06:31;;;;;;;23.10;15.80;;;;;;;0.91;100.00;100575.25;105300;1256;72616;-57
2023/02/05 08:09:00;;;;;;;15.20;10.40;;;;;;;1.14;100.00;100572.02;105088;1263;61383;-56
2023/02/05 08:11:29;;;;;;;15.10;9.90;;;;;;;1.33;100.00;100574.02;105111;1260;62213;-57
2023/02/05 08:14:04;;;;;;;13.90;8.80;;;;;;;1.46;100.00;100567.70;104854;1257;76052;-56
2023/02/05 08:16:33;;;;;;;14.40;8.90;;;;;;;1.42;100.00;100567.98;105290;1260;67476;-59
2023/02/05 08:19:01;;;;;;;37.70;19.00;;;;;;;1.39;100.00;100566.66;105054;1260;73327;-56
2023/02/05 08:21:30;;;;;;;40.80;15.60;;;;;;;1.55;100.00;100566.50;105141;1260;61427;-56
2023/02/05 08:23:59;;;;;;;70.20;24.10;;;;;;;1.74;100.00;100564.18;105069;1260;61264;-56
2023/02/05 08:26:28;;;;;;;215.70;69.20;;;;;;;1.88;100.00;100564.29;105044;1257;75160;-56
2023/02/05 08:28:58;;;;;;;102.50;35.60;;;;;;;2.01;100.00;100568.92;105105;1257;67801;-55
2023/02/05 08:31:27;;;;;;;39.50;17.20;;;;;;;2.16;100.00;100568.30;105116;1260;72990;-56
2023/02/05 08:33:56;;;;;;;25.40;12.60;;;;;;;2.31;100.00;100569.15;105116;1260;61346;-56
2023/02/05 08:36:25;;;;;;;16.00;8.60;;;;;;;2.36;100.00;100566.70;105079;1260;61665;-56
2023/02/05 08:38:53;;;;;;;19.80;10.20;;;;;;;2.27;100.00;100567.58;105174;1256;75903;-57
2023/02/05 08:41:22;;;;;;;11.60;7.30;;;;;;;2.08;100.00;100569.73;105144;1256;68646;-56
2023/02/05 08:43:51;;;;;;;17.10;10.60;;;;;;;1.93;100.00;100573.14;105104;1256;73995;-57
2023/02/05 08:46:21;;;;;;;13.00;7.50;;;;;;;1.83;100.00;100574.28;105065;1257;61317;-56
2023/02/05 08:48:50;;;;;;;10.30;6.20;;;;;;;1.77;100.00;100572.56;105157;1260;61257;-55
2023/02/05 08:51:18;;;;;;;12.20;6.90;;;;;;;1.65;100.00;100573.23;105033;1257;76251;-55
2023/02/05 08:53:47;;;;;;;18.00;9.90;;;;;;;1.65;100.00;100567.46;105093;1261;66535;-55
2023/02/05 08:56:16;;;;;;;12.30;6.90;;;;;;;1.75;100.00;100564.98;105165;1256;73700;-58
2023/02/05 08:58:47;;;;;;;8.90;5.80;;;;;;;1.73;100.00;100566.71;105010;1260;61279;-56
2023/02/05 09:01:16;;;;;;;9.50;5.90;;;;;;;1.60;100.00;100565.95;105081;1257;61151;-56
2023/02/05 09:03:44;;;;;;;12.60;7.00;;;;;;;1.60;100.00;100559.29;105033;1257;75164;-58
2023/02/05 09:06:14;;;;;;;9.00;6.10;;;;;;;1.75;100.00;100560.67;105391;1257;68721;-58
2023/02/05 09:08:42;;;;;;;10.80;6.40;;;;;;;1.89;100.00;100560.27;105014;1256;74515;-56
2023/02/05 09:11:12;;;;;;;9.90;6.60;;;;;;;1.96;100.00;100564.19;105081;1257;61360;-59
2023/02/05 09:13:41;;;;;;;10.90;7.10;;;;;;;1.87;100.00;100564.37;104994;1258;61283;-56
2023/02/05 09:16:10;;;;;;;10.50;6.40;;;;;;;1.69;100.00;100568.15;105123;1257;75910;-56
2023/02/05 09:18:38;;;;;;;11.20;6.60;;;;;;;1.55;100.00;100568.37;105125;1260;66773;-56
2023/02/05 09:21:08;;;;;;;10.20;6.70;;;;;;;1.44;100.00;100573.16;105068;1260;73957;-56
2023/02/05 09:23:38;;;;;;;13.90;8.10;;;;;;;1.29;100.00;100577.02;104956;1260;61472;-56
2023/02/05 09:26:08;;;;;;;10.60;7.00;;;;;;;1.15;100.00;100575.00;105146;1257;62012;-56
2023/02/05 09:28:36;;;;;;;11.50;5.90;;;;;;;1.03;100.00;100579.83;104735;1257;76454;-56
2023/02/05 09:31:07;;;;;;;9.70;5.50;;;;;;;0.97;100.00;100577.89;104992;1256;67930;-56
2023/02/05 09:33:35;;;;;;;10.30;5.70;;;;;;;1.03;100.00;100580.20;105215;1256;74104;-59
2023/02/05 09:36:10;;;;;;;8.60;5.30;;;;;;;1.07;100.00;100581.44;105797;1256;62628;-57
2023/02/05 09:38:40;;;;;;;8.60;5.60;;;;;;;1.07;100.00;100582.98;104992;1259;61334;-56
2023/02/05 09:41:11;;;;;;;8.20;5.10;;;;;;;1.13;100.00;100579.23;105048;1256;75170;-56
2023/02/05 09:43:59;;;;;;;9.00;5.80;;;;;;;1.18;100.00;100574.74;105183;1260;67642;-56
2023/02/05 09:46:52;;;;;;;6.90;4.10;;;;;;;1.26;100.00;100574.21;105189;1262;74192;-56
2023/02/05 09:49:36;;;;;;;7.30;4.40;;;;;;;1.27;100.00;100574.29;105290;1257;61247;-59
2023/02/05 09:52:14;;;;;;;7.90;4.90;;;;;;;1.28;100.00;100575.58;105215;1259;61212;-56
2023/02/05 09:54:44;;;;;;;9.00;5.10;;;;;;;1.30;100.00;100578.88;105073;1264;76178;-55
2023/02/05 09:57:15;;;;;;;11.40;7.80;;;;;;;1.39;100.00;100572.88;105590;1259;66828;-57
2023/02/05 09:59:44;;;;;;;8.60;5.30;;;;;;;1.64;100.00;100571.33;105289;1257;73521;-56
2023/02/05 10:02:35;;;;;;;7.10;4.50;;;;;;;1.88;100.00;100572.17;105161;1265;61337;-55
2023/02/05 10:05:11;;;;;;;7.70;4.00;;;;;;;2.14;100.00;100569.78;105496;1263;61649;-59
2023/02/05 10:07:55;;;;;;;7.20;4.20;;;;;;;2.30;100.00;100568.74;104982;1257;75865;-55
2023/02/05 10:10:44;;;;;;;6.70;4.20;;;;;;;2.46;100.00;100570.15;105737;1257;68277;-57
2023/02/05 10:13:31;;;;;;;7.70;4.70;;;;;;;2.60;100.00;100568.20;105380;1256;73532;-57
2023/02/05 10:16:09;;;;;;;7.40;4.20;;;;;;;2.76;100.00;100569.02;105822;1259;61366;-59
2023/02/05 10:18:56;;;;;;;5.80;3.40;;;;;;;2.81;100.00;100568.77;105403;1256;61871;-58
2023/02/05 10:21:41;;;;;;;7.40;3.70;;;;;;;2.71;100.00;100567.95;108845;1256;76231;-58
2023/02/05 10:24:43;;;;;;;13.00;9.50;;;;;;;2.69;100.00;100566.77;108823;1256;68380;-58
2023/02/05 10:27:21;;;;;;;8.80;4.50;;;;;;;2.77;100.00;100567.48;108770;1257;73154;-58
2023/02/05 10:30:22;;;;;;;5.60;3.20;;;;;;;2.79;100.00;100571.30;105740;1263;61305;-56
2023/02/05 10:32:56;;;;;;;6.40;3.60;;;;;;;2.77;100.00;100574.02;105381;1257;61214;-58
2023/02/05 10:35:33;;;;;;;6.70;3.60;;;;;;;2.79;100.00;100575.80;105200;1257;75356;-57
2023/02/05 10:38:02;;;;;;;5.20;3.10;;;;;;;2.77;100.00;100576.56;105211;1257;67705;-60
2023/02/05 10:40:38;;;;;;;5.50;3.30;;;;;;;2.61;100.00;100578.23;105614;1260;71749;-59
2023/02/05 10:43:36;;;;;;;8.90;5.10;;;;;;;2.47;100.00;100579.86;105390;1260;61337;-56
2023/02/05 10:46:10;;;;;;;7.40;4.30;;;;;;;2.53;100.00;100580.23;105557;1260;61278;-59
2023/02/05 10:48:38;;;;;;;6.20;4.00;;;;;;;2.56;100.00;100577.46;105159;1259;75939;-56
2023/02/05 10:51:13;;;;;;;5.20;3.10;;;;;;;2.48;100.00;100573.92;105341;1256;68690;-56
2023/02/05 10:53:42;;;;;;;5.80;3.40;;;;;;;2.41;100.00;100576.05;105346;1256;74338;-57
2023/02/05 10:56:15;;;;;;;6.30;3.70;;;;;;;2.39;100.00;100579.13;105105;1257;61289;-57
2023/02/05 10:58:51;;;;;;;6.30;3.10;;;;;;;2.44;100.00;100578.89;105171;1257;61181;-58
2023/02/05 11:01:34;;;;;;;5.90;3.50;;;;;;;2.54;100.00;100581.21;105236;1257;75509;-58
2023/02/05 11:04:06;;;;;;;8.60;5.20;;;;;;;2.70;100.00;100577.34;105293;1260;66473;-57
2023/02/05 11:06:55;;;;;;;11.00;7.10;;;;;;;2.93;100.00;100577.66;105356;1257;74160;-58
2023/02/05 11:09:23;;;;;;;7.80;4.60;;;;;;;3.17;100.00;100579.11;105134;1256;61276;-57
2023/02/05 11:11:55;;;;;;;8.50;4.90;;;;;;;3.35;100.00;100577.30;105296;1257;61167;-57
2023/02/05 11:14:35;;;;;;;7.90;4.50;;;;;;;3.57;100.00;100578.83;105257;1257;75764;-56
2023/02/05 11:17:16;;;;;;;8.00;4.90;;;;;;;3.86;100.00;100578.65;105250;1261;67549;-55
2023/02/05 11:19:55;;;;;;;7.60;4.70;;;;;;;4.05;100.00;100580.92;105368;1257;74265;-57
2023/02/05 11:22:28;;;;;;;8.50;5.30;;;;;;;4.08;100.00;100577.45;105382;1256;61430;-59
2023/02/05 11:25:16;;;;;;;8.70;5.40;;;;;;;3.96;100.00;100584.14;105416;1259;61445;-57
2023/02/05 11:28:19;;;;;;;8.80;5.30;;;;;;;3.80;100.00;100587.79;105240;1264;76452;-58